createdAt,value
2019-03-26T00:00:46.967Z,10.77
2019-03-26T00:03:51.404Z,11.00
2019-03-26T00:06:55.837Z,9.50
2019-03-26T00:10:00.597Z,9.10
2019-03-26T00:13:05.422Z,11.70
2019-03-26T00:16:09.856Z,9.60
2019-03-26T00:19:14.287Z,11.33
2019-03-26T00:22:18.998Z,9.90
2019-03-26T00:25:23.731Z,9.50
2019-03-26T00:28:28.462Z,10.93
2019-03-26T00:31:33.193Z,9.87
2019-03-26T00:34:37.637Z,10.77
2019-03-26T00:37:42.351Z,10.47
2019-03-26T00:40:46.812Z,10.17
2019-03-26T00:43:51.230Z,11.90
2019-03-26T00:46:56.031Z,11.50
2019-03-26T00:50:00.757Z,13.37
2019-03-26T00:53:05.494Z,13.63
2019-03-26T00:56:09.942Z,13.50
2019-03-26T00:59:14.648Z,14.33
2019-03-26T01:02:19.085Z,15.30
2019-03-26T01:05:23.542Z,14.20
2019-03-26T01:08:28.225Z,14.20
2019-03-26T01:11:32.671Z,12.77
2019-03-26T01:14:37.110Z,14.03
2019-03-26T01:17:41.554Z,12.70
2019-03-26T01:20:45.999Z,13.67
2019-03-26T01:23:50.450Z,16.07
2019-03-26T01:26:54.904Z,15.23
2019-03-26T01:29:59.310Z,15.53
2019-03-26T01:33:03.763Z,14.83
2019-03-26T01:36:08.546Z,15.93
2019-03-26T01:39:12.978Z,16.83
2019-03-26T01:42:17.426Z,15.20
2019-03-26T01:45:22.120Z,14.10
2019-03-26T01:48:26.855Z,17.30
2019-03-26T01:51:31.577Z,18.17
2019-03-26T01:54:36.020Z,15.23
2019-03-26T01:57:40.573Z,17.10
2019-03-26T02:00:52.613Z,15.27
2019-03-26T02:03:57.361Z,12.47
2019-03-26T02:07:02.096Z,14.37
2019-03-26T02:10:06.974Z,16.57
2019-03-26T02:13:11.418Z,19.17
2019-03-26T02:16:15.859Z,14.37
2019-03-26T02:19:20.291Z,12.80
2019-03-26T02:22:24.736Z,14.23
2019-03-26T02:25:29.169Z,14.30
2019-03-26T02:28:33.618Z,15.10
2019-03-26T02:31:38.068Z,12.63
2019-03-26T02:34:42.845Z,14.30
2019-03-26T02:37:47.570Z,14.10
2019-03-26T02:40:52.291Z,14.03
2019-03-26T02:43:57.021Z,13.70
2019-03-26T02:47:01.473Z,14.80
2019-03-26T02:50:12.629Z,15.03
2019-03-26T02:53:17.392Z,14.03
2019-03-26T02:56:21.810Z,16.67
2019-03-26T02:59:26.274Z,14.03
2019-03-26T03:02:30.710Z,16.60
2019-03-26T03:05:36.318Z,12.87
2019-03-26T03:08:41.143Z,16.83
2019-03-26T03:11:45.849Z,17.07
2019-03-26T03:14:50.296Z,15.50
2019-03-26T03:17:54.740Z,14.17
2019-03-26T03:20:59.175Z,17.23
2019-03-26T03:24:03.950Z,13.97
2019-03-26T03:27:08.674Z,15.07
2019-03-26T03:30:14.336Z,15.47
2019-03-26T03:33:18.771Z,16.33
2019-03-26T03:36:23.198Z,13.93
2019-03-26T03:39:27.909Z,15.40
2019-03-26T03:42:32.632Z,13.73
2019-03-26T03:45:38.293Z,15.07
2019-03-26T03:48:44.254Z,16.80
2019-03-26T03:51:51.388Z,19.63
2019-03-26T03:54:56.170Z,14.40
2019-03-26T03:58:02.058Z,16.07
2019-03-26T04:01:06.567Z,17.77
2019-03-26T04:04:11.296Z,14.57
2019-03-26T04:07:15.716Z,15.40
2019-03-26T04:10:20.454Z,14.50
2019-03-26T04:13:24.895Z,15.77
2019-03-26T04:16:29.330Z,16.60
2019-03-26T04:19:34.018Z,16.27
2019-03-26T04:22:38.452Z,17.10
2019-03-26T04:25:43.170Z,16.93
2019-03-26T04:28:47.612Z,18.57
2019-03-26T04:31:52.333Z,15.73
2019-03-26T04:34:56.800Z,15.00
2019-03-26T04:38:01.201Z,14.37
2019-03-26T04:41:05.642Z,14.97
2019-03-26T04:44:10.087Z,14.03
2019-03-26T04:47:14.851Z,15.83
2019-03-26T04:50:19.294Z,15.60
2019-03-26T04:53:23.728Z,20.07
2019-03-26T04:56:28.244Z,18.90
2019-03-26T04:59:32.952Z,19.53
2019-03-26T05:02:37.381Z,16.77
2019-03-26T05:05:41.827Z,16.23
2019-03-26T05:08:46.279Z,16.73
2019-03-26T05:11:51.060Z,19.80
2019-03-26T05:14:55.786Z,17.73
2019-03-26T05:18:00.523Z,18.23
2019-03-26T05:21:04.963Z,21.10
2019-03-26T05:24:09.476Z,17.40
2019-03-26T05:27:13.933Z,20.47
2019-03-26T05:30:18.433Z,18.37
2019-03-26T05:33:23.158Z,20.60
2019-03-26T05:36:27.879Z,22.60
2019-03-26T05:39:32.323Z,19.60
2019-03-26T05:42:37.657Z,20.47
2019-03-26T05:45:42.096Z,17.97
2019-03-26T05:48:46.524Z,22.20
2019-03-26T05:51:50.974Z,20.87
2019-03-26T05:54:55.491Z,24.03
2019-03-26T05:58:00.176Z,21.93
2019-03-26T06:01:04.919Z,24.77
2019-03-26T06:04:09.345Z,19.93
2019-03-26T06:07:13.791Z,21.33
2019-03-26T06:10:18.301Z,22.20
2019-03-26T06:13:23.023Z,20.27
2019-03-26T06:16:37.815Z,26.07
2019-03-26T06:19:34.214Z,26.07
2019-03-26T06:22:38.958Z,21.47
2019-03-26T06:25:43.678Z,21.60
2019-03-26T06:28:48.114Z,22.47
2019-03-26T06:31:52.550Z,21.17
2019-03-26T06:34:56.990Z,21.97
2019-03-26T06:38:01.420Z,20.93
2019-03-26T06:41:05.857Z,25.23
2019-03-26T06:44:10.633Z,22.73
2019-03-26T06:47:15.357Z,20.27
2019-03-26T06:50:19.873Z,19.93
2019-03-26T06:53:24.563Z,22.90
2019-03-26T06:56:28.997Z,23.30
2019-03-26T06:59:33.436Z,25.70
2019-03-26T07:02:38.409Z,20.57
2019-03-26T07:05:43.176Z,22.40
2019-03-26T07:08:47.572Z,21.43
2019-03-26T07:11:52.017Z,24.87
2019-03-26T07:14:56.467Z,24.20
2019-03-26T07:18:02.615Z,22.37
2019-03-26T07:21:07.065Z,22.73
2019-03-26T07:24:11.832Z,20.63
2019-03-26T07:27:16.392Z,21.93
2019-03-26T07:30:37.405Z,22.73
2019-03-26T07:33:42.455Z,17.23
2019-03-26T07:36:46.899Z,22.40
2019-03-26T07:39:51.335Z,16.27
2019-03-26T07:42:55.853Z,17.70
2019-03-26T07:46:00.371Z,18.33
2019-03-26T07:49:04.877Z,16.43
2019-03-26T07:52:09.392Z,17.03
2019-03-26T07:55:14.406Z,15.67
2019-03-26T07:58:18.854Z,17.80
2019-03-26T08:01:23.646Z,18.37
2019-03-26T08:04:28.108Z,16.77
2019-03-26T08:07:32.566Z,18.83
2019-03-26T08:10:37.065Z,15.80
2019-03-26T08:13:41.977Z,15.60
2019-03-26T08:16:46.864Z,19.27
2019-03-26T08:19:51.627Z,18.00
2019-03-26T08:22:56.072Z,19.53
2019-03-26T08:26:00.533Z,17.37
2019-03-26T08:29:04.968Z,15.83
2019-03-26T08:32:09.450Z,17.27
2019-03-26T08:35:13.962Z,16.13
2019-03-26T08:38:18.433Z,16.30
2019-03-26T08:41:22.874Z,16.20
2019-03-26T08:44:27.340Z,15.83
2019-03-26T08:47:32.085Z,17.57
2019-03-26T08:50:36.537Z,14.67
2019-03-26T08:53:41.523Z,15.23
2019-03-26T08:56:46.251Z,17.77
2019-03-26T08:59:50.697Z,14.77
2019-03-26T09:02:55.150Z,14.93
2019-03-26T09:05:59.595Z,19.20
2019-03-26T09:09:05.971Z,15.47
2019-03-26T09:12:10.832Z,16.27
2019-03-26T09:15:15.959Z,20.00
2019-03-26T09:18:20.704Z,12.10
2019-03-26T09:21:25.167Z,15.50
2019-03-26T09:24:29.606Z,14.17
2019-03-26T09:27:34.382Z,12.63
2019-03-26T09:30:39.121Z,12.63
2019-03-26T09:33:43.587Z,16.57
2019-03-26T09:36:48.372Z,14.90
2019-03-26T09:39:53.087Z,12.83
2019-03-26T09:42:57.545Z,13.00
2019-03-26T09:46:02.067Z,11.70
2019-03-26T09:49:06.885Z,12.20
2019-03-26T09:52:11.604Z,17.47
2019-03-26T09:55:16.347Z,12.27
2019-03-26T09:58:21.080Z,12.77
2019-03-26T10:01:25.515Z,14.10
2019-03-26T10:04:29.970Z,15.03
2019-03-26T10:07:34.421Z,12.10
2019-03-26T10:10:39.173Z,11.67
2019-03-26T10:13:43.624Z,12.90
2019-03-26T10:16:48.724Z,12.33
2019-03-26T10:19:53.764Z,13.37
2019-03-26T10:22:58.999Z,12.33
2019-03-26T10:26:03.453Z,15.50
2019-03-26T10:29:19.033Z,11.30
2019-03-26T10:32:14.079Z,12.30
2019-03-26T10:35:18.864Z,9.97
2019-03-26T10:38:23.316Z,11.17
2019-03-26T10:41:28.118Z,10.33
2019-03-26T10:44:32.851Z,8.30
2019-03-26T10:47:37.579Z,10.27
2019-03-26T10:50:42.328Z,9.77
2019-03-26T10:53:46.750Z,8.00
2019-03-26T10:56:51.244Z,11.67
2019-03-26T10:59:55.978Z,10.17
2019-03-26T11:03:00.711Z,9.83
2019-03-26T11:06:05.143Z,9.27
2019-03-26T11:09:23.029Z,7.30
2019-03-26T11:12:16.241Z,6.77
2019-03-26T11:15:20.685Z,7.43
2019-03-26T11:18:25.154Z,11.77
2019-03-26T11:21:29.928Z,9.53
2019-03-26T11:24:34.387Z,10.43
2019-03-26T11:27:38.903Z,9.70
2019-03-26T11:30:43.372Z,7.87
2019-03-26T11:33:47.817Z,6.57
2019-03-26T11:36:52.547Z,9.73
2019-03-26T11:39:57.274Z,9.87
2019-03-26T11:43:03.653Z,6.50
2019-03-26T11:46:08.109Z,7.37
2019-03-26T11:49:12.906Z,6.13
2019-03-26T11:52:17.633Z,7.53
2019-03-26T11:55:22.376Z,5.50
2019-03-26T11:58:30.695Z,7.23
2019-03-26T12:01:33.297Z,7.27
2019-03-26T12:04:38.108Z,5.77
2019-03-26T12:07:43.071Z,5.17
2019-03-26T12:10:47.696Z,5.43
2019-03-26T12:13:52.489Z,5.57
2019-03-26T12:16:57.220Z,6.83
2019-03-26T12:20:01.759Z,10.30
2019-03-26T12:23:06.487Z,5.87
2019-03-26T12:26:11.217Z,9.60
2019-03-26T12:29:15.663Z,10.37
2019-03-26T12:32:20.675Z,8.03
2019-03-26T12:35:31.460Z,8.63
2019-03-26T12:38:36.175Z,5.87
2019-03-26T12:41:40.626Z,6.17
2019-03-26T12:44:45.073Z,7.80
2019-03-26T12:47:49.851Z,5.40
2019-03-26T12:50:54.584Z,6.30
2019-03-26T12:53:59.318Z,8.43
2019-03-26T12:57:04.071Z,5.93
2019-03-26T13:00:10.568Z,9.90
2019-03-26T13:03:15.021Z,6.50
2019-03-26T13:06:19.521Z,6.23
2019-03-26T13:09:24.298Z,5.70
2019-03-26T13:12:29.035Z,5.37
2019-03-26T13:15:33.583Z,6.37
2019-03-26T13:18:38.019Z,4.93
2019-03-26T13:21:42.835Z,4.20
2019-03-26T13:24:47.265Z,8.17
2019-03-26T13:27:51.972Z,5.60
2019-03-26T13:30:56.440Z,6.87
2019-03-26T13:34:01.125Z,8.50
2019-03-26T13:37:06.055Z,7.80
2019-03-26T13:40:10.993Z,5.60
2019-03-26T13:43:15.766Z,5.37
2019-03-26T13:46:20.184Z,5.23
2019-03-26T13:49:24.632Z,5.03
2019-03-26T13:52:29.409Z,4.30
2019-03-26T13:55:34.134Z,7.20
2019-03-26T13:58:38.580Z,5.73
2019-03-26T14:01:43.301Z,6.30
2019-03-26T14:04:47.748Z,6.87
2019-03-26T14:07:52.203Z,5.83
2019-03-26T14:10:56.669Z,7.33
2019-03-26T14:14:01.397Z,6.30
2019-03-26T14:17:06.135Z,6.33
2019-03-26T14:20:11.473Z,5.57
2019-03-26T14:23:16.201Z,6.63
2019-03-26T14:26:20.929Z,8.13
2019-03-26T14:29:25.746Z,6.40
2019-03-26T14:32:30.496Z,5.20
2019-03-26T14:35:34.968Z,4.23
2019-03-26T14:38:39.473Z,4.87
2019-03-26T14:41:43.917Z,6.53
2019-03-26T14:44:50.078Z,8.07
2019-03-26T14:47:54.745Z,9.57
2019-03-26T14:50:59.186Z,8.13
2019-03-26T14:54:03.629Z,6.97
2019-03-26T14:57:08.439Z,9.30
2019-03-26T15:00:13.577Z,7.73
2019-03-26T15:03:18.111Z,12.47
2019-03-26T15:06:22.837Z,6.63
2019-03-26T15:09:27.765Z,7.00
2019-03-26T15:12:32.215Z,9.03
2019-03-26T15:15:36.828Z,10.60
2019-03-26T15:18:41.672Z,10.57
2019-03-26T15:21:46.115Z,14.07
2019-03-26T15:24:50.567Z,12.57
2019-03-26T15:27:55.036Z,10.23
2019-03-26T15:30:59.763Z,13.20
2019-03-26T15:34:04.221Z,11.70
2019-03-26T15:37:09.018Z,13.07
2019-03-26T15:40:14.518Z,7.97
2019-03-26T15:43:18.968Z,11.00
2019-03-26T15:46:23.727Z,11.03
2019-03-26T15:49:28.191Z,8.93
2019-03-26T15:52:32.638Z,10.77
2019-03-26T15:55:37.402Z,10.87
2019-03-26T15:58:41.894Z,14.47
2019-03-26T16:01:46.322Z,11.63
2019-03-26T16:04:51.087Z,12.83
2019-03-26T16:07:55.562Z,12.97
2019-03-26T16:11:01.989Z,12.83
2019-03-26T16:14:06.479Z,13.20
2019-03-26T16:17:10.893Z,13.37
2019-03-26T16:20:15.868Z,18.27
2019-03-26T16:23:20.330Z,17.67
2019-03-26T16:26:24.769Z,15.80
2019-03-26T16:29:29.240Z,15.43
2019-03-26T16:32:33.731Z,19.20
2019-03-26T16:35:40.227Z,22.97
2019-03-26T16:38:44.617Z,18.17
2019-03-26T16:41:49.696Z,17.30
2019-03-26T16:44:54.229Z,17.57
2019-03-26T16:47:58.678Z,18.43
2019-03-26T16:51:03.147Z,17.97
2019-03-26T16:54:07.588Z,19.17
2019-03-26T16:57:12.037Z,17.33
2019-03-26T17:00:19.923Z,16.37
2019-03-26T17:03:31.379Z,17.67
2019-03-26T17:06:30.539Z,15.67
2019-03-26T17:09:34.987Z,18.00
2019-03-26T17:12:39.427Z,17.77
2019-03-26T17:15:43.879Z,16.60
2019-03-26T17:18:48.559Z,19.77
2019-03-26T17:21:53.010Z,19.33
2019-03-26T17:24:57.762Z,16.87
2019-03-26T17:28:02.511Z,17.60
2019-03-26T17:31:06.959Z,16.50
2019-03-26T17:34:11.414Z,16.20
2019-03-26T17:37:15.874Z,14.93
2019-03-26T17:40:20.605Z,17.00
2019-03-26T17:43:25.053Z,14.47
2019-03-26T17:46:29.565Z,15.00
2019-03-26T17:49:34.016Z,12.27
2019-03-26T17:52:38.913Z,11.87
2019-03-26T17:55:43.666Z,12.90
2019-03-26T17:58:48.387Z,12.70
2019-03-26T18:01:54.493Z,17.30
2019-03-26T18:04:59.480Z,12.73
2019-03-26T18:08:04.015Z,13.70
2019-03-26T18:11:08.845Z,15.17
2019-03-26T18:14:13.294Z,17.77
2019-03-26T18:17:17.734Z,14.87
2019-03-26T18:20:32.408Z,11.73
2019-03-26T18:23:28.683Z,15.40
2019-03-26T18:26:33.151Z,13.17
2019-03-26T18:29:37.576Z,21.80
2019-03-26T18:32:42.045Z,14.20
2019-03-26T18:35:46.475Z,13.47
2019-03-26T18:38:51.231Z,16.00
2019-03-26T18:41:55.671Z,15.83
2019-03-26T18:45:00.474Z,14.37
2019-03-26T18:48:05.191Z,16.30
2019-03-26T18:51:09.660Z,17.80
2019-03-26T18:54:14.362Z,15.33
2019-03-26T18:57:20.506Z,15.47
2019-03-26T19:00:38.880Z,18.40
2019-03-26T19:03:43.346Z,16.43
2019-03-26T19:06:48.163Z,14.53
2019-03-26T19:09:52.555Z,13.67
2019-03-26T19:12:58.103Z,15.47
2019-03-26T19:16:02.822Z,19.77
2019-03-26T19:19:07.269Z,14.77
2019-03-26T19:22:11.722Z,14.53
2019-03-26T19:25:16.166Z,18.57
2019-03-26T19:28:20.620Z,15.50
2019-03-26T19:31:25.349Z,14.27
2019-03-26T19:34:29.792Z,14.73
2019-03-26T19:37:34.253Z,15.90
2019-03-26T19:40:39.250Z,19.37
2019-03-26T19:43:43.993Z,15.83
2019-03-26T19:46:48.418Z,15.87
2019-03-26T19:49:52.878Z,16.63
2019-03-26T19:52:57.327Z,18.07
2019-03-26T19:56:02.180Z,19.20
2019-03-26T19:59:06.716Z,16.60
2019-03-26T20:02:11.164Z,15.30
2019-03-26T20:05:15.969Z,23.03
2019-03-26T20:08:20.436Z,16.87
2019-03-26T20:11:25.261Z,19.27
2019-03-26T20:14:29.709Z,19.20
2019-03-26T20:17:34.471Z,18.93
2019-03-26T20:20:38.923Z,20.23
2019-03-26T20:23:43.723Z,16.83
2019-03-26T20:26:48.167Z,19.03
2019-03-26T20:29:52.631Z,23.40
2019-03-26T20:32:57.159Z,21.17
2019-03-26T20:36:01.936Z,18.33
2019-03-26T20:39:08.734Z,20.80
2019-03-26T20:42:13.760Z,24.30
2019-03-26T20:45:18.343Z,19.30
2019-03-26T20:48:22.841Z,21.17
2019-03-26T20:51:27.313Z,19.57
2019-03-26T20:54:31.734Z,23.50
2019-03-26T20:57:36.547Z,18.27
2019-03-26T21:00:44.266Z,23.03
2019-03-26T21:03:49.027Z,20.87
2019-03-26T21:06:53.518Z,21.10
2019-03-26T21:09:58.276Z,22.93
2019-03-26T21:13:03.107Z,18.57
2019-03-26T21:16:07.836Z,20.63
2019-03-26T21:19:12.687Z,22.00
2019-03-26T21:22:17.225Z,25.80
2019-03-26T21:25:21.921Z,21.03
2019-03-26T21:28:29.172Z,25.53
2019-03-26T21:31:35.387Z,23.20
2019-03-26T21:34:39.999Z,23.27
2019-03-26T21:37:44.475Z,19.70
2019-03-26T21:40:49.165Z,23.47
2019-03-26T21:44:03.764Z,24.17
2019-03-26T21:47:00.163Z,20.27
2019-03-26T21:50:06.171Z,21.13
2019-03-26T21:53:10.698Z,22.57
2019-03-26T21:56:15.481Z,21.03
2019-03-26T21:59:19.925Z,22.83
2019-03-26T22:02:24.633Z,20.30
2019-03-26T22:05:29.483Z,22.47
2019-03-26T22:08:34.202Z,22.83
2019-03-26T22:11:49.113Z,23.63
2019-03-26T22:14:45.108Z,21.07
2019-03-26T22:17:49.560Z,22.17
2019-03-26T22:20:54.008Z,22.70
2019-03-26T22:23:58.771Z,21.87
2019-03-26T22:27:03.526Z,20.57
2019-03-26T22:30:10.475Z,21.53
2019-03-26T22:33:15.217Z,25.57
2019-03-26T22:36:19.944Z,25.63
2019-03-26T22:39:24.675Z,20.73
2019-03-26T22:42:29.105Z,25.13
2019-03-26T22:45:33.829Z,21.87
2019-03-26T22:48:39.586Z,20.50
2019-03-26T22:51:44.416Z,18.87
2019-03-26T22:54:49.254Z,19.37
2019-03-26T22:57:54.078Z,19.40
2019-03-26T23:00:58.915Z,24.13
2019-03-26T23:04:03.357Z,21.70
2019-03-26T23:07:08.071Z,19.07
2019-03-26T23:10:13.928Z,17.63
2019-03-26T23:13:18.371Z,21.97
2019-03-26T23:16:24.841Z,18.57
2019-03-26T23:19:29.479Z,19.47
2019-03-26T23:22:34.293Z,20.37
2019-03-26T23:25:38.752Z,23.80
2019-03-26T23:28:43.213Z,19.43
2019-03-26T23:31:48.074Z,19.37
2019-03-26T23:34:52.531Z,23.50
2019-03-26T23:37:57.234Z,15.60
2019-03-26T23:41:01.680Z,21.53
2019-03-26T23:44:06.483Z,17.77
2019-03-26T23:47:11.424Z,21.17
2019-03-26T23:50:16.565Z,18.33
2019-03-26T23:53:21.002Z,21.20
2019-03-26T23:56:25.478Z,18.53
2019-03-26T23:59:30.351Z,17.07
